Time;durP1;ratioP1;P1;durP2;ratioP2;P2;SDS_P1;SDS_P2;PMS_P1;PMS_P2;Temp;Humidity;BMP_temperature;BMP_pressure;BME280_temperature;BME280_humidity;BME280_pressure;Samples;Min_cycle;Max_cycle;Signal;HPM_P1;HPM_P2
2022/07/01 00:02:13;;;;;;;21.48;15.50;;;;;;;-146.64;100.00;106011.50;4998732;28;20058;-78
2022/07/01 00:04:39;;;;;;;20.70;15.90;;;;;;;-146.64;100.00;104407.34;5010812;28;20125;-79
2022/07/01 00:07:04;;;;;;;22.30;16.17;;;;;;;-146.64;100.00;102200.84;5010382;28;20049;-77
2022/07/01 00:09:30;;;;;;;22.70;15.43;;;;;;;-146.64;100.00;101257.06;4990351;28;20026;-78
2022/07/01 00:11:56;;;;;;;20.73;15.17;;;;;;;-146.64;100.00;97970.06;4992468;28;20393;-79
2022/07/01 00:14:22;;;;;;;23.53;15.20;;;;;;;-146.64;100.00;97907.75;4993862;28;20484;-78
2022/07/01 00:16:48;;;;;;;20.27;15.30;;;;;;;-146.64;100.00;97621.16;5010773;28;20278;-78
2022/07/01 00:19:14;;;;;;;24.73;15.67;;;;;;;-146.64;100.00;96655.59;5010862;28;20083;-78
2022/07/01 00:21:39;;;;;;;22.07;14.93;;;;;;;-146.64;100.00;94891.19;5010075;28;20283;-79
2022/07/01 00:24:05;;;;;;;22.93;15.50;;;;;;;-146.64;100.00;94301.84;4992852;28;20030;-77
2022/07/01 00:26:30;;;;;;;27.00;17.07;;;;;;;-146.64;100.00;92615.19;5001678;28;20810;-78
2022/07/01 00:28:55;;;;;;;29.23;16.40;;;;;;;-146.64;100.00;91798.06;5009610;28;20038;-77
2022/07/01 00:31:21;;;;;;;21.97;16.17;;;;;;;-146.64;100.00;89293.75;5004894;28;20062;-78
2022/07/01 00:33:46;;;;;;;20.20;14.80;;;;;;;-146.64;100.00;88893.81;5010640;28;20053;-77
2022/07/01 00:36:11;;;;;;;25.07;15.10;;;;;;;-146.64;100.00;88767.41;5000780;28;20105;-78
2022/07/01 00:38:37;;;;;;;20.63;15.10;;;;;;;-146.64;100.00;87499.41;5005653;28;20120;-78
2022/07/01 00:41:02;;;;;;;30.50;15.73;;;;;;;-146.64;100.00;85939.84;5007850;28;20058;-77
2022/07/01 00:43:27;;;;;;;29.07;14.33;;;;;;;-146.64;100.00;84645.88;4994325;28;20033;-78
2022/07/01 00:45:53;;;;;;;22.47;15.47;;;;;;;-146.64;100.00;84521.66;5012293;28;20469;-78
2022/07/01 00:48:19;;;;;;;20.40;15.27;;;;;;;-146.64;100.00;81699.19;4997692;28;20038;-77
2022/07/01 00:50:45;;;;;;;23.20;14.05;;;;;;;-146.64;100.00;78787.72;4977882;28;20030;-79
2022/07/01 00:53:12;;;;;;;22.13;13.57;;;;;;;-146.64;100.00;78787.72;4988934;28;20035;-79
2022/07/01 00:55:38;;;;;;;22.67;13.82;;;;;;;-146.64;100.00;79316.91;4992809;28;20097;-78
2022/07/01 00:58:04;;;;;;;16.98;13.23;;;;;;;-146.64;100.00;79581.56;4995919;28;20494;-79
2022/07/01 01:00:29;;;;;;;23.13;14.67;;;;;;;-146.64;100.00;80110.84;5011044;28;20088;-78
2022/07/01 01:02:55;;;;;;;21.53;13.97;;;;;;;-146.64;100.00;79316.91;5010412;28;20033;-79
2022/07/01 01:05:21;;;;;;;22.50;14.53;;;;;;;-146.64;100.00;77465.03;5010602;28;20088;-79
2022/07/01 01:07:49;;;;;;;21.98;14.38;;;;;;;-146.64;100.00;76936.09;4998206;28;20034;-79
2022/07/01 01:10:14;;;;;;;27.67;14.82;;;;;;;-146.64;100.00;73763.81;4997141;28;20056;-78
2022/07/01 01:12:40;;;;;;;21.77;13.17;;;;;;;-146.64;100.00;73235.38;4999629;28;20037;-78
2022/07/01 01:15:06;;;;;;;21.90;13.87;;;;;;;-146.64;100.00;71914.50;5027445;28;20514;-78
2022/07/01 01:17:32;;;;;;;22.05;13.90;;;;;;;-146.64;100.00;70858.13;5003854;28;20087;-78
2022/07/01 01:19:57;;;;;;;27.63;15.57;;;;;;;-146.64;100.00;70858.13;5011364;28;20037;-78
2022/07/01 01:22:24;;;;;;;18.30;13.47;;;;;;;-146.64;100.00;69538.06;4987692;28;20038;-79
2022/07/01 01:24:49;;;;;;;25.48;13.70;;;;;;;-146.64;100.00;68482.31;4993305;28;20033;-78
2022/07/01 01:27:16;;;;;;;26.20;14.27;;;;;;;-146.64;100.00;67426.84;5001277;28;20034;-78
2022/07/01 01:29:42;;;;;;;25.33;14.07;;;;;;;-146.64;100.00;68218.44;4991966;28;20082;-79
2022/07/01 01:32:07;;;;;;;23.13;15.50;;;;;;;-146.64;100.00;69010.16;5007739;28;20117;-79
2022/07/01 01:34:34;;;;;;;25.20;15.13;;;;;;;-146.64;100.00;68746.22;4995113;28;20034;-79
2022/07/01 01:36:59;;;;;;;26.75;14.57;;;;;;;-146.64;100.00;67954.56;5007663;28;20070;-79
2022/07/01 01:39:25;;;;;;;27.17;14.90;;;;;;;-146.64;100.00;67163.03;5011721;28;20135;-78
2022/07/01 01:41:52;;;;;;;20.10;13.57;;;;;;;-146.64;100.00;66371.66;5010090;28;20034;-79
2022/07/01 01:44:18;;;;;;;21.02;14.75;;;;;;;-146.64;100.00;65053.09;4999454;28;20038;-79
2022/07/01 01:46:43;;;;;;;26.00;14.63;;;;;;;-146.64;100.00;64262.13;4968910;28;20523;-79
2022/07/01 01:49:09;;;;;;;23.90;13.87;;;;;;;-146.64;100.00;62944.25;5010930;28;20073;-79
2022/07/01 01:51:34;;;;;;;25.83;14.10;;;;;;;-146.64;100.00;62680.72;5004057;28;20085;-79
2022/07/01 01:54:01;;;;;;;24.50;15.30;;;;;;;-146.64;100.00;62417.22;4993876;28;20030;-79
2022/07/01 01:56:26;;;;;;;;;;;;;;;-146.64;100.00;61890.25;5012401;28;20026;-80
2022/07/01 01:58:52;;;;;;;21.55;14.25;;;;;;;-146.64;100.00;61099.94;4992403;28;19941;-79
2022/07/01 02:01:18;;;;;;;21.73;14.67;;;;;;;-146.64;100.00;60309.78;5006372;28;20027;-79
2022/07/01 02:03:45;;;;;;;21.20;13.95;;;;;;;-146.64;100.00;60046.44;4975315;28;20031;-79
2022/07/01 02:06:11;;;;;;;29.55;14.77;;;;;;;-146.64;100.00;58729.94;5006979;28;20079;-79
2022/07/01 02:08:37;;;;;;;26.90;15.80;;;;;;;-146.64;100.00;57940.25;4991666;28;20215;-79
2022/07/01 02:11:03;;;;;;;27.23;15.00;;;;;;;-146.64;100.00;57150.72;4994128;28;20044;-79
2022/07/01 02:13:28;;;;;;;20.60;14.73;;;;;;;-146.64;100.00;55835.19;5026190;28;20535;-79
2022/07/01 02:15:54;;;;;;;27.80;16.07;;;;;;;-146.64;100.00;55572.13;4993271;28;20034;-79
2022/07/01 02:18:20;;;;;;;34.53;16.43;;;;;;;-146.64;100.00;55046.06;5008805;28;20456;-78
2022/07/01 02:20:45;;;;;;;27.63;15.17;;;;;;;-146.64;100.00;55046.06;4993712;28;20036;-79
2022/07/01 02:23:10;;;;;;;28.97;15.60;;;;;;;-146.64;100.00;54520.09;5011170;28;20057;-79
2022/07/01 02:25:36;;;;;;;20.83;15.70;;;;;;;-146.64;100.00;54257.13;5004764;28;20034;-79
2022/07/01 02:28:02;;;;;;;26.93;14.90;;;;;;;-146.64;100.00;54520.09;5025920;28;20462;-79
2022/07/01 02:30:28;;;;;;;22.00;15.23;;;;;;;-146.64;100.00;54257.13;5007833;28;20042;-79
2022/07/01 02:32:53;;;;;;;20.47;15.50;;;;;;;-146.64;100.00;54520.09;4995765;28;20031;-79
2022/07/01 02:35:19;;;;;;;22.43;14.50;;;;;;;-146.64;100.00;54783.06;5005491;28;20060;-79
2022/07/01 02:37:44;;;;;;;23.03;15.27;;;;;;;-146.64;100.00;54257.13;4991320;28;20077;-79
2022/07/01 02:40:11;;;;;;;29.63;14.63;;;;;;;-146.64;100.00;53994.19;5009173;28;20030;-79
2022/07/01 02:42:37;;;;;;;26.95;15.43;;;;;;;-146.64;100.00;53994.19;5007764;28;20028;-79
2022/07/01 02:45:06;;;;;;;28.00;15.13;;;;;;;-146.64;100.00;53468.31;5026157;28;20405;-79
2022/07/01 02:47:33;;;;;;;24.92;14.07;;;;;;;-146.64;100.00;53468.31;5007004;28;20022;-79
2022/07/01 02:49:59;;;;;;;22.52;14.93;;;;;;;-146.64;100.00;53731.25;5009352;28;20551;-79
2022/07/01 02:52:24;;;;;;;21.50;14.63;;;;;;;-146.64;100.00;53731.25;5004116;28;20125;-79
2022/07/01 02:54:50;;;;;;;23.10;13.77;;;;;;;-146.64;100.00;53994.19;5001289;28;20054;-79
2022/07/01 02:57:15;;;;;;;23.30;13.37;;;;;;;-146.64;100.00;53731.25;5009600;28;20033;-79
2022/07/01 02:59:40;;;;;;;24.57;13.07;;;;;;;-146.64;100.00;53994.19;5009290;28;20034;-81
2022/07/01 03:02:05;;;;;;;27.30;12.60;;;;;;;-146.64;100.00;53731.25;5008684;28;20022;-79
2022/07/01 03:04:31;;;;;;;24.30;12.03;;;;;;;-146.64;100.00;53205.44;5026305;28;20030;-79
2022/07/01 03:06:57;;;;;;;22.27;13.50;;;;;;;-146.64;100.00;53205.44;4991437;28;20029;-80
2022/07/01 03:09:22;;;;;;;24.83;12.20;;;;;;;-146.64;100.00;53205.44;4995677;28;20165;-79
2022/07/01 03:11:49;;;;;;;21.27;12.77;;;;;;;-146.64;100.00;53205.44;5005864;28;20362;-80
2022/07/01 03:14:14;;;;;;;18.17;11.80;;;;;;;-146.64;100.00;52942.56;4999661;28;20425;-79
2022/07/01 03:16:40;;;;;;;21.93;12.40;;;;;;;-146.64;100.00;53468.31;4985417;28;20041;-79
2022/07/01 03:19:05;;;;;;;22.60;11.97;;;;;;;-146.64;100.00;52416.84;4992240;28;20080;-79
2022/07/01 03:21:31;;;;;;;20.23;11.53;;;;;;;-146.64;100.00;51628.41;5001153;28;20124;-79
2022/07/01 03:23:56;;;;;;;24.53;12.23;;;;;;;-146.64;100.00;51365.63;4991097;28;20063;-79
2022/07/01 03:26:21;;;;;;;19.17;11.53;;;;;;;-146.64;100.00;51365.63;4991100;28;20053;-79
2022/07/01 03:28:47;;;;;;;18.37;11.50;;;;;;;-146.64;100.00;51102.88;5007776;28;20040;-79
2022/07/01 03:31:12;;;;;;;16.77;11.87;;;;;;;-146.64;100.00;51365.63;4991144;28;20057;-79
2022/07/01 03:33:37;;;;;;;16.80;11.07;;;;;;;-146.64;100.00;52154.00;5024120;28;20038;-79
2022/07/01 03:36:03;;;;;;;19.23;11.83;;;;;;;-146.64;100.00;51365.63;4992382;28;20535;-79
2022/07/01 03:38:28;;;;;;;19.10;12.10;;;;;;;-146.64;100.00;50314.72;4991493;28;20040;-79
2022/07/01 03:40:53;;;;;;;21.50;12.70;;;;;;;-146.64;100.00;49526.69;5002604;28;20177;-79
2022/07/01 03:43:19;;;;;;;22.30;12.30;;;;;;;-146.64;100.00;48738.84;4989743;28;20038;-79
2022/07/01 03:45:44;;;;;;;20.63;12.53;;;;;;;-146.64;100.00;47951.16;4996950;28;20454;-79
2022/07/01 03:48:10;;;;;;;17.47;11.27;;;;;;;-146.64;100.00;47688.63;4993967;28;20022;-79
2022/07/01 03:50:36;;;;;;;18.42;12.40;;;;;;;-146.64;100.00;47426.09;5004535;28;20084;-77
2022/07/01 03:55:45;;;;;;;19.48;13.02;;;;;;;-146.64;100.00;48738.84;5011251;28;20037;-79
2022/07/01 03:58:10;;;;;;;19.13;10.77;;;;;;;-146.64;100.00;49001.44;5012731;28;20149;-79
2022/07/01 04:00:37;;;;;;;21.57;11.40;;;;;;;-146.64;100.00;48738.84;4995810;28;20080;-79
2022/07/01 04:03:03;;;;;;;19.40;10.52;;;;;;;-146.64;100.00;49001.44;4999672;28;20046;-79
2022/07/01 04:05:29;;;;;;;15.02;9.45;;;;;;;-146.64;100.00;49789.34;5004833;28;20835;-79
2022/07/01 04:07:54;;;;;;;17.40;9.87;;;;;;;-146.64;100.00;50052.03;4998235;28;20026;-78
2022/07/01 04:10:20;;;;;;;13.97;8.90;;;;;;;-146.64;100.00;49789.34;5009412;28;20018;-79
2022/07/01 04:12:45;;;;;;;16.80;9.30;;;;;;;-146.64;100.00;49001.44;5005745;28;20117;-79
2022/07/01 04:15:11;;;;;;;16.23;9.10;;;;;;;-146.64;100.00;47688.63;5027835;28;20029;-79
2022/07/01 04:17:36;;;;;;;23.07;10.63;;;;;;;-146.64;100.00;45326.63;4988352;28;20480;-80
2022/07/01 04:20:03;;;;;;;15.43;9.40;;;;;;;-146.64;100.00;43228.28;5010850;28;20085;-81
2022/07/01 04:22:35;;;;;;;21.70;10.50;;;;;;;-146.64;100.00;41655.22;5007904;28;20034;-79
2022/07/01 04:25:03;;;;;;;21.73;9.43;;;;;;;-146.64;100.00;42179.50;5008391;28;20805;-79
2022/07/01 04:27:29;;;;;;;24.40;11.07;;;;;;;-146.64;100.00;40868.94;5006288;28;20021;-77
2022/07/01 04:29:54;;;;;;;21.53;10.37;;;;;;;-146.64;100.00;40082.81;5007176;28;20108;-79
2022/07/01 04:32:20;;;;;;;21.10;9.63;;;;;;;-146.64;100.00;36154.56;4990150;28;20129;-79
2022/07/01 04:34:45;;;;;;;21.23;10.57;;;;;;;-146.64;100.00;34584.34;4986963;28;20470;-79
2022/07/01 04:37:11;;;;;;;19.03;9.23;;;;;;;-146.64;100.00;33537.88;5006862;28;20444;-79
2022/07/01 04:39:38;;;;;;;18.55;9.68;;;;;;;-146.64;100.00;31707.25;4997205;28;20054;-79
2022/07/01 04:42:04;;;;;;;19.13;10.15;;;;;;;-146.64;100.00;30138.81;4993551;28;20030;-79
2022/07/01 04:44:31;;;;;;;12.07;8.97;;;;;;;-146.64;100.00;27003.84;5006972;28;20511;-78
2022/07/01 04:46:57;;;;;;;20.10;9.65;;;;;;;-146.64;100.00;24393.28;4980102;28;20116;-79
2022/07/01 04:49:23;;;;;;;21.58;10.00;;;;;;;-146.64;100.00;27003.84;5011943;28;20033;-79
2022/07/01 04:51:48;;;;;;;19.57;10.10;;;;;;;-146.64;100.00;28832.28;4992987;28;20044;-79
2022/07/01 04:54:14;;;;;;;14.30;9.73;;;;;;;-146.64;100.00;27787.34;5010472;28;20113;-79
2022/07/01 04:56:40;;;;;;;17.92;9.85;;;;;;;-146.64;100.00;26742.72;5008154;28;20030;-78
2022/07/01 04:59:05;;;;;;;14.87;9.13;;;;;;;-146.64;100.00;23088.66;4975474;28;20096;-79
2022/07/01 05:01:31;;;;;;;15.73;8.70;;;;;;;-146.64;100.00;18916.81;5003366;28;20033;-79
2022/07/01 05:03:57;;;;;;;20.13;10.10;;;;;;;-146.64;100.00;18656.22;4993919;28;20046;-77
2022/07/01 05:06:22;;;;;;;23.90;10.13;;;;;;;-146.64;100.00;22827.78;5017323;28;20062;-79
2022/07/01 05:08:48;;;;;;;25.03;9.17;;;;;;;-146.64;100.00;23871.41;5009720;28;20054;-79
2022/07/01 05:11:14;;;;;;;21.03;10.03;;;;;;;-146.64;100.00;20220.03;5010464;28;20099;-78
2022/07/01 05:13:39;;;;;;;17.92;9.77;;;;;;;-146.64;100.00;20220.03;5012049;28;20041;-78
2022/07/01 05:16:06;;;;;;;20.63;9.50;;;;;;;-146.64;100.00;21002.19;5008600;28;20486;-79
2022/07/01 05:23:59;;;;;;;14.95;8.02;;;;;;;-146.64;100.00;30922.97;4996011;28;20046;-78
2022/07/01 05:26:25;;;;;;;16.27;8.53;;;;;;;-146.64;100.00;37201.72;5006230;28;20022;-78
2022/07/01 05:28:52;;;;;;;19.95;7.63;;;;;;;-146.64;100.00;40868.94;5010628;28;20041;-80
2022/07/01 05:31:17;;;;;;;17.10;7.70;;;;;;;-146.64;100.00;43752.75;4984612;28;20037;-79
2022/07/01 05:33:43;;;;;;;14.17;7.47;;;;;;;-146.64;100.00;52679.69;4980247;28;20035;-79
2022/07/01 05:36:09;;;;;;;18.20;7.50;;;;;;;-146.64;100.00;63734.94;4980806;28;20038;-79
2022/07/01 05:38:34;;;;;;;11.65;7.15;;;;;;;-146.64;100.00;84082.84;4994374;28;20037;-78
2022/07/01 05:40:59;;;;;;;11.90;6.60;;;;;;;-146.64;100.00;80375.53;4995230;28;20444;-78
2022/07/01 05:43:25;;;;;;;14.17;6.60;;;;;;;-146.64;100.00;86733.03;5010882;28;20041;-76
2022/07/01 05:45:50;;;;;;;14.27;6.07;;;;;;;-146.64;100.00;89119.69;5010229;28;20091;-78
2022/07/01 05:48:15;;;;;;;16.47;6.03;;;;;;;-146.64;100.00;86467.94;5002454;28;20030;-78
2022/07/01 05:50:41;;;;;;;17.40;6.43;;;;;;;-146.64;100.00;74292.38;4999319;28;20044;-79
2022/07/01 05:53:06;;;;;;;18.63;5.60;;;;;;;-146.64;100.00;71122.19;5014720;28;20266;-78
2022/07/01 05:55:33;;;;;;;13.47;5.80;;;;;;;-146.64;100.00;94694.03;5009912;28;20054;-78
2022/07/01 05:58:01;;;;;;;12.05;5.25;;;;;;;-146.64;100.00;104001.72;5011361;28;20038;-77
2022/07/01 06:00:28;;;;;;;13.57;5.78;;;;;;;-146.64;100.00;97617.00;5014306;28;20453;-79
2022/07/01 06:02:53;;;;;;;14.43;6.30;;;;;;;-146.64;100.00;113389.19;5013036;28;20026;-77
2022/07/01 06:05:19;;;;;;;9.80;5.00;;;;;;;-146.64;100.00;115462.00;5001975;28;20034;-78
2022/07/01 06:07:44;;;;;;;13.10;5.57;;;;;;;-146.64;100.00;115729.00;4989546;28;20026;-77
2022/07/01 06:10:10;;;;;;;11.60;4.80;;;;;;;-146.64;100.00;117064.25;5010944;28;20045;-78
2022/07/01 06:12:38;;;;;;;15.32;6.22;;;;;;;-146.64;100.00;111992.59;5009280;28;20110;-78
2022/07/01 06:15:05;;;;;;;15.63;5.80;;;;;;;-146.64;100.00;108792.72;5010578;28;20030;-76
2022/07/01 06:17:30;;;;;;;8.88;4.90;;;;;;;-146.64;100.00;98410.41;5017106;28;20044;-78
2022/07/01 06:19:56;;;;;;;12.47;4.73;;;;;;;-146.64;100.00;96815.47;5022364;28;20112;-78
2022/07/01 06:22:21;;;;;;;9.43;4.07;;;;;;;-146.64;100.00;91238.19;5019284;28;20027;-80
2022/07/01 06:24:48;;;;;;;16.27;5.67;;;;;;;-146.64;100.00;88054.63;5021019;28;20033;-78
2022/07/01 06:27:14;;;;;;;13.80;4.40;;;;;;;-146.64;100.00;84078.72;5008143;28;20358;-78
2022/07/01 06:29:39;;;;;;;16.93;4.10;;;;;;;-146.64;100.00;82224.63;5010187;28;20064;-80
2022/07/01 06:32:05;;;;;;;10.20;3.97;;;;;;;-146.64;100.00;87259.13;5000695;28;20620;-80
2022/07/01 06:34:31;;;;;;;17.48;4.13;;;;;;;-146.64;100.00;78783.59;4999436;28;20045;-84
2022/07/01 06:36:59;;;;;;;14.27;3.97;;;;;;;-146.64;100.00;65576.34;4997591;28;20043;-82
2022/07/01 06:39:29;;;;;;;16.02;4.82;;;;;;;-146.64;100.00;71910.38;4999120;28;20057;-81
2022/07/01 06:41:55;;;;;;;7.88;3.50;;;;;;;-146.64;100.00;76403.06;4995080;28;20108;-82
2022/07/01 06:44:21;;;;;;;8.75;3.08;;;;;;;-146.64;100.00;70325.94;5000569;28;20041;-80
2022/07/01 06:46:46;;;;;;;9.03;3.90;;;;;;;-146.64;100.00;49387.19;4992482;28;20489;-81
2022/07/01 06:49:12;;;;;;;7.83;3.17;;;;;;;-146.64;100.00;58989.09;4986031;28;20026;-81
2022/07/01 06:51:37;;;;;;;9.37;3.40;;;;;;;-146.64;100.00;47875.25;5006696;28;20280;-81
2022/07/01 06:54:02;;;;;;;9.47;3.93;;;;;;;-146.64;100.00;42148.78;5000724;28;20109;-79
2022/07/01 06:56:28;;;;;;;7.13;3.10;;;;;;;-146.64;100.00;36592.19;4997998;28;20088;-82
2022/07/01 06:58:53;;;;;;;11.57;4.23;;;;;;;-146.64;100.00;40725.63;5007871;28;20110;-81
2022/07/01 07:01:18;;;;;;;10.53;3.03;;;;;;;-146.64;100.00;34662.03;5010063;28;20062;-81
2022/07/01 07:03:44;;;;;;;7.20;3.27;;;;;;;-146.64;100.00;33742.25;5010375;28;20048;-81
2022/07/01 07:06:09;;;;;;;11.07;2.97;;;;;;;-146.64;100.00;35900.97;5016601;28;20065;-81
2022/07/01 07:08:35;;;;;;;10.97;3.20;;;;;;;-146.64;100.00;33901.66;5005338;28;20034;-81
2022/07/01 07:11:00;;;;;;;8.93;2.67;;;;;;;-146.64;100.00;33047.44;5006869;28;20157;-79
2022/07/01 07:13:25;;;;;;;8.73;2.63;;;;;;;-146.64;100.00;37377.63;5028313;28;20034;-81
2022/07/01 07:15:51;;;;;;;9.70;3.17;;;;;;;-146.64;100.00;37627.19;5011529;28;20053;-79
2022/07/01 07:18:17;;;;;;;6.50;2.83;;;;;;;-146.64;100.00;34807.16;5008851;28;20088;-78
2022/07/01 07:20:42;;;;;;;12.03;2.77;;;;;;;-146.64;100.00;33513.38;5009777;28;20033;-78
2022/07/01 07:23:07;;;;;;;10.43;2.87;;;;;;;-146.64;100.00;33599.19;4996048;28;20267;-78
2022/07/01 07:25:33;;;;;;;8.63;2.37;;;;;;;-146.64;100.00;33055.63;5029134;28;20022;-79
2022/07/01 07:27:59;;;;;;;9.13;1.87;;;;;;;-146.64;100.00;32765.47;5012752;28;20083;-78
2022/07/01 07:30:25;;;;;;;9.88;2.88;;;;;;;-146.64;100.00;34486.22;5009303;28;20039;-78
2022/07/01 07:32:50;;;;;;;11.03;2.80;;;;;;;-146.64;100.00;34351.31;4993435;28;20041;-79
2022/07/01 07:35:16;;;;;;;10.93;2.60;;;;;;;-146.64;100.00;34097.88;4998807;28;20417;-78
2022/07/01 07:37:42;;;;;;;9.53;3.10;;;;;;;-146.64;100.00;34273.66;5014572;28;20321;-78
2022/07/01 07:40:12;;;;;;;8.00;2.43;;;;;;;-146.64;100.00;32638.81;5029694;28;20038;-79
2022/07/01 07:42:38;;;;;;;8.90;2.45;;;;;;;-146.64;100.00;32479.44;5013306;28;20278;-79
2022/07/01 07:45:06;;;;;;;13.73;2.70;;;;;;;-146.64;100.00;33864.88;5008585;28;20113;-79
2022/07/01 07:47:34;;;;;;;9.18;2.30;;;;;;;-146.64;100.00;33732.03;4995946;28;20040;-78
2022/07/01 07:50:00;;;;;;;11.30;2.53;;;;;;;-146.64;100.00;34326.78;4993913;28;20510;-79
2022/07/01 07:52:25;;;;;;;8.73;2.20;;;;;;;-146.64;100.00;34052.91;4976322;28;20121;-79
2022/07/01 07:54:52;;;;;;;15.83;2.57;;;;;;;-146.64;100.00;33979.31;5005565;28;20099;-80
2022/07/01 07:57:17;;;;;;;6.00;2.28;;;;;;;-146.64;100.00;34735.59;5010293;28;20045;-79
2022/07/01 07:59:42;;;;;;;7.47;2.30;;;;;;;-146.64;100.00;34486.22;5013076;28;20034;-80
2022/07/01 08:02:08;;;;;;;13.47;2.40;;;;;;;-146.64;100.00;34488.28;5012563;28;20056;-80
2022/07/01 08:04:33;;;;;;;9.50;2.03;;;;;;;-146.64;100.00;34187.81;5013637;28;20481;-79
2022/07/01 08:06:58;;;;;;;10.63;2.03;;;;;;;-146.64;100.00;34637.50;5008078;28;20034;-79
2022/07/01 08:09:24;;;;;;;13.07;2.60;;;;;;;-146.64;100.00;33738.16;5002012;28;20045;-79
2022/07/01 08:11:51;;;;;;;7.80;2.55;;;;;;;-146.64;100.00;34065.16;5012960;28;20358;-80
2022/07/01 08:14:16;;;;;;;;;;;;;;;-146.64;100.00;35328.47;5012871;28;20037;-80
2022/07/01 08:16:43;;;;;;;6.32;1.60;;;;;;;-146.64;100.00;34478.03;5012324;28;19917;-77
2022/07/01 08:19:08;;;;;;;8.85;2.60;;;;;;;-146.64;100.00;33133.28;5012893;28;20032;-80
2022/07/01 08:21:34;;;;;;;5.20;1.93;;;;;;;-146.64;100.00;34956.38;5008669;28;20125;-80
2022/07/01 08:23:59;;;;;;;7.07;1.97;;;;;;;-146.64;100.00;34768.31;5000135;28;20026;-80
2022/07/01 08:26:25;;;;;;;4.70;1.80;;;;;;;-146.64;100.00;34647.72;5021166;28;20030;-79
2022/07/01 08:28:51;;;;;;;7.18;1.90;;;;;;;-146.64;100.00;33913.91;4993056;28;20030;-80
2022/07/01 08:31:17;;;;;;;5.40;1.42;;;;;;;-146.64;100.00;35624.94;5003490;28;20044;-79
2022/07/01 08:33:42;;;;;;;3.47;1.60;;;;;;;-146.64;100.00;35520.66;5011163;28;20397;-80
2022/07/01 08:36:09;;;;;;;7.45;1.50;;;;;;;-146.64;98.87;36426.53;5010785;28;20160;-80
2022/07/01 08:38:36;;;;;;;5.50;1.20;;;;;;;-146.64;100.00;36203.63;4994395;28;20029;-79
2022/07/01 08:41:03;;;;;;;8.98;1.48;;;;;;;-146.64;100.00;35825.31;5004746;28;20033;-80
2022/07/01 08:43:28;;;;;;;;;;;;;;;-146.64;100.00;35070.88;4995108;28;20030;-77
2022/07/01 08:45:54;;;;;;;11.30;2.00;;;;;;;-146.64;100.00;34363.59;5004538;28;19918;-80
2022/07/01 08:48:20;;;;;;;12.27;1.90;;;;;;;-146.64;100.00;35344.84;4994141;28;20489;-78
2022/07/01 08:50:45;;;;;;;10.60;1.83;;;;;;;-146.64;100.00;35933.69;4994147;28;20171;-78
2022/07/01 08:53:12;;;;;;;8.27;1.43;;;;;;;-146.64;100.00;36082.97;4998058;28;20419;-78
2022/07/01 08:58:23;;;;;;;3.00;1.27;;;;;;;-146.64;100.00;35633.13;5006812;28;20060;-79
2022/07/01 09:00:48;;;;;;;8.93;1.58;;;;;;;-146.64;99.58;36373.38;5001406;28;20072;-78
2022/07/01 09:03:14;;;;;;;7.07;1.47;;;;;;;-146.64;97.11;36553.34;4991365;28;20034;-78
2022/07/01 09:05:55;;;;;;;4.63;1.40;;;;;;;-146.64;95.55;36686.28;5003583;28;20463;-78
2022/07/01 09:08:20;;;;;;;6.90;1.20;;;;;;;-146.64;97.57;36404.03;4991385;28;20036;-78
2022/07/01 09:11:14;;;;;;;6.30;1.53;;;;;;;-146.64;94.60;36682.19;4988956;28;20017;-80
2022/07/01 09:13:41;;;;;;;7.63;1.55;;;;;;;-146.64;98.00;36729.22;5018054;28;20041;-78
2022/07/01 09:16:16;;;;;;;12.10;1.60;;;;;;;-146.64;97.69;36500.16;4999525;28;20022;-80
2022/07/01 09:19:01;;;;;;;9.60;1.83;;;;;;;-146.64;95.16;36616.75;5001438;28;20532;-78
2022/07/01 09:21:31;;;;;;;5.97;1.17;;;;;;;-146.64;94.36;36692.41;5004616;28;20029;-80
2022/07/01 09:24:23;;;;;;;4.85;1.20;;;;;;;-146.64;92.01;36759.91;5001533;28;20034;-81
2022/07/01 09:26:57;;;;;;;6.88;1.77;;;;;;;-146.64;91.79;36549.25;5006703;28;20022;-80
2022/07/01 09:29:43;;;;;;;5.32;1.75;;;;;;;-146.64;89.38;36690.38;4993306;28;20069;-79
2022/07/01 09:32:10;;;;;;;3.70;1.40;;;;;;;-146.64;88.52;36637.19;5006932;28;20029;-79
2022/07/01 09:34:50;;;;;;;7.72;2.00;;;;;;;-146.64;90.11;36590.16;4987731;28;20088;-79
2022/07/01 09:37:18;;;;;;;7.20;1.42;;;;;;;-146.64;87.14;36866.25;4999420;28;20061;-80
2022/07/01 09:39:47;;;;;;;8.23;1.02;;;;;;;-146.64;90.95;37005.34;5008668;28;20125;-79
2022/07/01 09:42:14;;;;;;;8.88;1.80;;;;;;;-146.64;92.15;36449.03;4989715;28;20044;-80
2022/07/01 09:45:04;;;;;;;3.53;1.50;;;;;;;-146.64;89.12;36575.84;5000679;28;20412;-82
2022/07/01 09:47:30;;;;;;;9.48;1.58;;;;;;;-146.64;90.24;36520.63;5005610;28;20137;-80
2022/07/01 09:49:56;;;;;;;7.55;1.23;;;;;;;-146.64;86.29;37111.72;5006661;28;20445;-80
2022/07/01 09:52:22;;;;;;;6.80;1.10;;;;;;;-146.64;86.79;37021.72;5010421;28;20054;-80
2022/07/01 09:54:49;;;;;;;8.75;1.42;;;;;;;-146.64;86.81;37062.63;5023559;28;20311;-80
2022/07/01 09:57:15;;;;;;;;;;;;;;;-146.64;85.63;36741.50;5007864;28;20423;-80
2022/07/01 09:59:40;;;;;;;2.63;0.80;;;;;;;-146.64;79.81;37103.53;5024153;28;19913;-81
2022/07/01 10:02:08;;;;;;;10.97;1.50;;;;;;;-146.64;79.94;36972.63;5007067;28;20030;-81
2022/07/01 10:04:34;;;;;;;5.80;1.00;;;;;;;-146.64;82.47;36629.00;5006993;28;20030;-80
2022/07/01 10:07:16;;;;;;;10.13;1.42;;;;;;;-146.64;83.72;37009.44;4993159;28;20022;-81
2022/07/01 10:10:03;;;;;;;4.97;1.35;;;;;;;-146.64;81.99;36837.63;5008046;28;20037;-80
2022/07/01 10:12:43;;;;;;;5.07;1.00;;;;;;;-146.64;80.14;36759.91;5001805;28;20030;-80
2022/07/01 10:15:10;;;;;;;8.35;1.25;;;;;;;-146.64;79.42;36712.88;4993177;28;20112;-80
2022/07/01 10:17:45;;;;;;;;;;;;;;;-146.64;74.76;36825.34;4990041;28;20037;-80
2022/07/01 10:20:16;;;;;;;8.70;1.10;;;;;;;-146.64;76.33;36804.91;5005925;28;19921;-81
2022/07/01 10:22:42;;;;;;;3.15;0.98;;;;;;;-146.64;74.85;36669.91;5012999;28;20072;-81
2022/07/01 10:25:38;;;;;;;3.22;1.23;;;;;;;-146.64;70.97;36792.63;5005729;28;20065;-81
2022/07/01 10:28:26;;;;;;;3.97;1.40;;;;;;;-146.64;72.10;36962.38;5004436;28;20034;-80
2022/07/01 10:30:52;;;;;;;4.20;1.65;;;;;;;-146.64;72.80;36964.44;5006960;28;20033;-80
2022/07/01 10:33:33;;;;;;;4.95;1.00;;;;;;;-146.64;73.82;37070.78;4995903;28;20033;-80
2022/07/01 10:36:12;;;;;;;5.30;1.40;;;;;;;-146.64;75.39;36653.56;5019522;28;20034;-80
2022/07/01 10:41:35;;;;;;;9.52;1.30;;;;;;;-146.64;69.79;36882.63;5013950;28;20413;-80
2022/07/01 10:44:20;;;;;;;5.53;1.38;;;;;;;-146.64;75.54;36776.25;5008945;28;20361;-80
2022/07/01 10:46:47;;;;;;;6.30;1.10;;;;;;;-146.64;73.77;36706.72;5009740;28;20033;-80
2022/07/01 10:49:13;;;;;;;;;;;;;;;-146.64;69.10;36759.91;5010084;28;20026;-80
2022/07/01 10:51:49;;;;;;;2.42;1.00;;;;;;;-146.64;69.64;36784.44;5009629;28;19960;-80
2022/07/01 10:54:36;;;;;;;4.32;1.08;;;;;;;-146.64;68.97;36702.63;5014931;28;20022;-80
2022/07/01 10:57:19;;;;;;;4.25;1.20;;;;;;;-146.64;67.87;36612.66;5008932;28;20033;-81
2022/07/01 10:59:52;;;;;;;3.10;1.02;;;;;;;-146.64;70.69;36616.75;4999803;28;20079;-80
2022/07/01 11:02:26;;;;;;;6.13;1.40;;;;;;;-146.64;67.11;36639.22;5020021;28;20497;-80
2022/07/01 11:05:04;;;;;;;5.22;1.10;;;;;;;-146.64;65.84;36575.84;5004671;28;20081;-80
2022/07/01 11:07:31;;;;;;;2.88;1.23;;;;;;;-146.64;65.89;36608.56;4999756;28;20033;-80
2022/07/01 11:09:58;;;;;;;5.70;1.05;;;;;;;-146.64;65.02;36729.22;5007783;28;20033;-80
2022/07/01 11:12:33;;;;;;;2.47;1.05;;;;;;;-146.64;65.08;36710.81;4997478;28;20029;-80
2022/07/01 11:15:05;;;;;;;3.33;0.82;;;;;;;-146.64;66.08;36776.25;5004885;28;20401;-83
2022/07/01 11:17:31;;;;;;;7.53;1.60;;;;;;;-146.64;68.78;36420.41;5004899;28;20564;-81
2022/07/01 11:19:58;;;;;;;5.82;1.05;;;;;;;-146.64;64.85;36477.66;4987217;28;20124;-81